createdAt,value
2018-07-17T00:02:27.918Z,18.30
2018-07-17T00:08:33.576Z,18.30
2018-07-17T00:14:39.411Z,18.20
2018-07-17T00:20:45.455Z,18.10
2018-07-17T00:26:51.829Z,17.90
2018-07-17T00:32:57.642Z,17.90
2018-07-17T00:39:03.331Z,17.90
2018-07-17T00:45:09.016Z,17.80
2018-07-17T00:51:14.736Z,17.60
2018-07-17T00:57:20.616Z,17.50
2018-07-17T01:03:31.711Z,17.20
2018-07-17T01:09:42.467Z,17.10
2018-07-17T01:15:48.161Z,17.00
2018-07-17T01:21:54.381Z,17.00
2018-07-17T01:28:00.041Z,16.90
2018-07-17T01:34:05.715Z,16.80
2018-07-17T01:40:11.328Z,16.60
2018-07-17T01:46:17.044Z,16.40
2018-07-17T01:52:22.897Z,16.30
2018-07-17T01:58:28.571Z,16.30
2018-07-17T02:04:34.279Z,16.20
2018-07-17T02:10:39.984Z,16.10
2018-07-17T02:16:45.593Z,16.10
2018-07-17T02:22:51.231Z,16.10
2018-07-17T02:28:57.221Z,16.10
2018-07-17T02:35:02.970Z,16.10
2018-07-17T02:41:09.128Z,16.10
2018-07-17T02:47:14.941Z,16.00
2018-07-17T02:53:20.675Z,15.90
2018-07-17T02:59:26.453Z,15.80
2018-07-17T03:05:32.150Z,15.70
2018-07-17T03:11:37.908Z,15.60
2018-07-17T03:17:43.686Z,15.60
2018-07-17T03:23:49.390Z,15.60
2018-07-17T03:29:55.725Z,15.70
2018-07-17T03:36:01.598Z,15.60
2018-07-17T03:42:07.376Z,15.40
2018-07-17T03:48:13.207Z,15.50
2018-07-17T03:54:19.014Z,15.40
2018-07-17T04:00:24.745Z,15.40
2018-07-17T04:06:30.701Z,15.30
2018-07-17T04:12:36.374Z,15.40
2018-07-17T04:18:42.102Z,15.40
2018-07-17T04:24:47.841Z,15.50
2018-07-17T04:30:53.684Z,15.70
2018-07-17T04:36:59.416Z,16.00
2018-07-17T04:43:05.133Z,16.40
2018-07-17T04:49:10.844Z,16.60
2018-07-17T04:55:16.541Z,16.80
2018-07-17T05:01:22.767Z,17.10
2018-07-17T05:07:28.426Z,17.30
2018-07-17T05:13:34.009Z,17.20
2018-07-17T05:19:39.744Z,17.20
2018-07-17T05:25:45.418Z,17.30
2018-07-17T05:31:51.840Z,17.50
2018-07-17T05:44:02.863Z,18.00
2018-07-17T05:50:09.410Z,18.10
2018-07-17T05:56:15.070Z,18.50
2018-07-17T06:02:21.051Z,18.90
2018-07-17T06:08:26.771Z,19.40
2018-07-17T06:14:32.542Z,19.80
2018-07-17T06:20:38.345Z,20.00
2018-07-17T06:26:44.050Z,20.20
2018-07-17T06:32:49.834Z,20.40
2018-07-17T06:38:55.584Z,20.70
2018-07-17T06:45:01.290Z,21.00
2018-07-17T06:51:07.125Z,21.20
2018-07-17T06:57:12.944Z,21.60
2018-07-17T07:03:18.816Z,21.80
2018-07-17T07:09:25.057Z,22.20
2018-07-17T07:15:30.838Z,22.70
2018-07-17T07:21:36.604Z,23.10
2018-07-17T07:27:42.392Z,23.50
2018-07-17T07:33:48.021Z,24.00
2018-07-17T07:39:53.822Z,24.10
2018-07-17T07:45:59.585Z,24.80
2018-07-17T07:52:05.262Z,25.40
2018-07-17T07:58:10.974Z,25.50
2018-07-17T08:04:16.756Z,25.80
2018-07-17T08:10:22.835Z,26.00
2018-07-17T08:16:28.541Z,26.50
2018-07-17T08:22:34.211Z,26.60
2018-07-17T08:28:39.865Z,26.90
2018-07-17T08:34:45.515Z,27.40
2018-07-17T08:40:51.990Z,27.60
2018-07-17T08:46:57.655Z,27.70
2018-07-17T08:53:03.378Z,28.20
2018-07-17T08:59:09.014Z,28.60
2018-07-17T09:05:14.687Z,29.10
2018-07-17T09:11:22.112Z,29.30
2018-07-17T09:17:27.924Z,29.50
2018-07-17T09:23:33.741Z,29.50
2018-07-17T09:29:39.469Z,29.70
2018-07-17T09:35:45.580Z,29.90
2018-07-17T09:41:52.204Z,30.10
2018-07-17T09:47:57.891Z,30.00
2018-07-17T09:54:03.632Z,30.50
2018-07-17T10:00:11.207Z,30.80
2018-07-17T10:06:17.291Z,30.40
2018-07-17T10:12:24.296Z,30.70
2018-07-17T10:18:30.307Z,30.50
2018-07-17T10:24:35.976Z,30.60
2018-07-17T10:30:41.824Z,30.90
2018-07-17T10:36:47.565Z,31.30
2018-07-17T10:42:53.894Z,31.70
2018-07-17T10:48:59.676Z,31.70
2018-07-17T10:55:05.684Z,32.10
2018-07-17T11:01:11.519Z,31.00
2018-07-17T11:07:17.193Z,31.00
2018-07-17T11:13:22.920Z,31.50
2018-07-17T11:19:28.618Z,31.10
2018-07-17T11:25:34.311Z,31.90
2018-07-17T11:31:40.036Z,32.10
2018-07-17T11:37:45.720Z,32.10
2018-07-17T11:43:51.857Z,32.40
2018-07-17T11:49:57.782Z,32.20
2018-07-17T11:56:03.447Z,32.90
2018-07-17T12:02:09.204Z,33.60
2018-07-17T12:08:15.129Z,33.90
2018-07-17T12:14:21.899Z,34.20
2018-07-17T12:20:27.704Z,34.50
2018-07-17T12:26:33.347Z,35.00
2018-07-17T12:32:39.449Z,35.20
2018-07-17T12:38:45.106Z,35.00
2018-07-17T12:44:51.201Z,34.40
2018-07-17T12:50:57.071Z,34.60
2018-07-17T12:57:02.733Z,34.90
2018-07-17T13:03:08.827Z,35.00
2018-07-17T13:09:14.529Z,34.50
2018-07-17T13:15:21.304Z,35.10
2018-07-17T13:21:27.478Z,36.10
2018-07-17T13:27:33.136Z,36.90
2018-07-17T13:33:38.844Z,36.70
2018-07-17T13:39:44.700Z,35.10
2018-07-17T13:45:51.370Z,35.30
2018-07-17T13:51:57.348Z,34.80
2018-07-17T13:58:03.162Z,35.20
2018-07-17T14:04:08.827Z,34.70
2018-07-17T14:10:14.549Z,35.40
2018-07-17T14:16:20.308Z,35.50
2018-07-17T14:22:27.092Z,35.40
2018-07-17T14:28:33.216Z,35.50
2018-07-17T14:34:39.066Z,34.70
2018-07-17T14:40:45.267Z,35.30
2018-07-17T14:46:51.264Z,35.10
2018-07-17T14:52:57.009Z,35.10
2018-07-17T14:59:02.670Z,36.30
2018-07-17T15:05:09.672Z,36.30
2018-07-17T15:11:15.367Z,36.80
2018-07-17T15:17:21.274Z,36.50
2018-07-17T15:23:27.110Z,35.20
2018-07-17T15:29:33.353Z,35.60
2018-07-17T15:35:39.068Z,35.70
2018-07-17T15:41:45.041Z,36.30
2018-07-17T15:47:50.953Z,36.40
2018-07-17T15:53:56.910Z,36.30
2018-07-17T16:00:02.900Z,35.60
2018-07-17T16:06:08.891Z,34.10
2018-07-17T16:12:14.787Z,33.70
2018-07-17T16:18:20.796Z,33.80
2018-07-17T16:24:26.810Z,34.00
2018-07-17T16:30:32.744Z,32.60
2018-07-17T16:36:38.751Z,31.30
2018-07-17T16:42:44.547Z,30.50
2018-07-17T16:48:50.139Z,30.40
2018-07-17T16:54:55.770Z,29.90
2018-07-17T17:01:02.212Z,29.60
2018-07-17T17:07:07.902Z,29.50
2018-07-17T17:13:13.902Z,29.50
2018-07-17T17:19:19.825Z,29.80
2018-07-17T17:25:25.776Z,30.70
2018-07-17T17:31:31.697Z,30.30
2018-07-17T17:37:37.610Z,30.30
2018-07-17T17:43:43.367Z,30.90
2018-07-17T17:49:49.341Z,30.50
2018-07-17T17:55:55.027Z,31.80
2018-07-17T18:02:00.913Z,32.00
2018-07-17T18:08:06.916Z,31.50
2018-07-17T18:14:12.900Z,30.40
2018-07-17T18:20:18.925Z,30.50
2018-07-17T18:26:24.926Z,30.60
2018-07-17T18:32:30.930Z,30.50
2018-07-17T18:38:36.867Z,30.40
2018-07-17T18:44:42.760Z,30.00
2018-07-17T18:50:48.743Z,29.60
2018-07-17T18:56:54.713Z,28.80
2018-07-17T19:03:00.635Z,28.00
2018-07-17T19:09:09.417Z,27.40
2018-07-17T19:15:14.997Z,27.00
2018-07-17T19:21:20.639Z,26.70
2018-07-17T19:27:26.194Z,26.40
2018-07-17T19:33:31.773Z,26.00
2018-07-17T19:39:37.353Z,25.80
2018-07-17T19:45:42.927Z,25.60
2018-07-17T19:51:48.545Z,25.30
2018-07-17T19:57:54.298Z,25.10
2018-07-17T20:03:59.961Z,24.90
2018-07-17T20:10:05.865Z,24.70
2018-07-17T20:16:11.807Z,24.30
2018-07-17T20:22:17.799Z,24.10
2018-07-17T20:28:23.695Z,24.00
2018-07-17T20:34:30.434Z,23.90
2018-07-17T20:40:36.346Z,23.80
2018-07-17T20:46:42.275Z,23.70
2018-07-17T20:52:48.215Z,23.50
2018-07-17T20:58:53.799Z,23.30
2018-07-17T21:04:59.448Z,23.20
2018-07-17T21:11:04.986Z,23.00
2018-07-17T21:17:10.555Z,22.90
2018-07-17T21:23:16.131Z,22.80
2018-07-17T21:29:21.852Z,22.70
2018-07-17T21:35:27.459Z,22.60
2018-07-17T21:41:33.012Z,22.60
2018-07-17T21:48:00.787Z,22.60
2018-07-17T21:54:06.590Z,22.60
2018-07-17T22:00:12.216Z,22.50
2018-07-17T22:06:17.849Z,22.40
2018-07-17T22:12:23.718Z,22.40
2018-07-17T22:18:29.314Z,22.30
2018-07-17T22:24:34.862Z,22.00
2018-07-17T22:30:40.467Z,21.90
2018-07-17T22:36:46.038Z,21.80
2018-07-17T22:42:51.616Z,21.80
2018-07-17T22:55:02.286Z,21.60
2018-07-17T23:01:08.107Z,21.40
2018-07-17T23:07:13.653Z,21.10
2018-07-17T23:13:19.283Z,20.90
2018-07-17T23:19:24.809Z,20.80
2018-07-17T23:25:31.573Z,20.80
2018-07-17T23:31:37.139Z,20.70
2018-07-17T23:37:42.687Z,20.60
2018-07-17T23:43:48.291Z,20.40
2018-07-17T23:49:53.932Z,20.30
2018-07-17T23:55:59.857Z,20.20
